Time;durP1;ratioP1;P1;durP2;ratioP2;P2;SDS_P1;SDS_P2;PMS_P1;PMS_P2;Temp;Humidity;BMP_temperature;BMP_pressure;BME280_temperature;BME280_humidity;BME280_pressure;Samples;Min_cycle;Max_cycle;Signal;HPM_P1;HPM_P2
2022/10/09 00:00:15;;;;;;;1.00;0.70;;;12.10;45.00;;;;;;5037633;28;20514;-74
2022/10/09 00:02:43;;;;;;;4.03;0.90;;;12.10;57.20;;;;;;5041104;28;20458;-74
2022/10/09 00:05:10;;;;;;;1.23;0.80;;;12.20;53.90;;;;;;5038066;28;20456;-74
2022/10/09 00:07:37;;;;;;;2.23;0.77;;;12.30;51.60;;;;;;5040830;28;20509;-74
2022/10/09 00:10:05;;;;;;;1.83;0.77;;;12.30;45.80;;;;;;5038521;28;20518;-74
2022/10/09 00:12:32;;;;;;;2.00;0.80;;;12.30;37.60;;;;;;5040689;28;20480;-74
2022/10/09 00:14:59;;;;;;;1.10;0.80;;;12.20;28.70;;;;;;5038506;28;20448;-74
2022/10/09 00:17:26;;;;;;;3.33;0.80;;;12.10;37.90;;;;;;5041255;28;20793;-74
2022/10/09 00:19:54;;;;;;;1.83;0.80;;;12.00;42.90;;;;;;5038740;28;20549;-74
2022/10/09 00:22:21;;;;;;;2.00;0.70;;;11.90;48.70;;;;;;5041375;28;20437;-74
2022/10/09 00:24:48;;;;;;;1.47;0.80;;;11.90;64.10;;;;;;5038330;28;20452;-74
2022/10/09 00:27:15;;;;;;;2.40;1.00;;;11.80;89.10;;;;;;5040434;28;20447;-74
2022/10/09 00:29:42;;;;;;;4.90;0.80;;;11.90;94.00;;;;;;5040783;28;20877;-74
2022/10/09 00:32:09;;;;;;;1.50;0.90;;;12.10;80.10;;;;;;5037683;28;20452;-74
2022/10/09 00:34:36;;;;;;;3.60;1.00;;;12.20;65.40;;;;;;5040552;28;20510;-74
2022/10/09 00:37:04;;;;;;;2.53;0.80;;;12.30;41.20;;;;;;5036955;28;20464;-74
2022/10/09 00:39:31;;;;;;;2.50;0.90;;;12.30;34.50;;;;;;5038783;28;20839;-74
2022/10/09 00:41:58;;;;;;;1.20;0.80;;;12.20;23.60;;;;;;5037380;28;20513;-75
2022/10/09 00:44:53;;;;;;;2.60;0.80;;;12.20;28.60;;;;;;5040243;28;20440;-74
2022/10/09 00:47:26;;;;;;;1.30;0.77;;;12.10;29.30;;;;;;5036531;28;20517;-74
2022/10/09 00:49:56;;;;;;;2.00;0.87;;;12.20;38.30;;;;;;5040127;28;20514;-74
2022/10/09 00:52:26;;;;;;;2.23;0.90;;;12.20;22.10;;;;;;5037991;28;20518;-74
2022/10/09 00:54:54;;;;;;;1.60;0.80;;;12.10;13.90;;;;;;5041153;28;20452;-74
2022/10/09 00:57:21;;;;;;;3.00;0.70;;;12.00;25.40;;;;;;5037777;28;20494;-74
2022/10/09 00:59:49;;;;;;;1.77;0.60;;;11.90;34.60;;;;;;5040422;28;20481;-74
2022/10/09 01:02:16;;;;;;;2.87;1.20;;;11.80;34.50;;;;;;5038345;28;20456;-74
2022/10/09 01:04:43;;;;;;;1.10;0.70;;;11.90;39.50;;;;;;5040258;28;20448;-74
2022/10/09 01:07:30;;;;;;;2.27;0.80;;;12.00;34.00;;;;;;5037645;28;20510;-74
2022/10/09 01:10:03;;;;;;;1.60;0.80;;;11.90;27.20;;;;;;5039834;28;20770;-74
2022/10/09 01:12:41;;;;;;;1.43;0.90;;;11.90;27.40;;;;;;5039940;28;20484;-74
2022/10/09 01:15:16;;;;;;;1.13;0.60;;;11.90;23.40;;;;;;5036700;28;20456;-74
2022/10/09 01:17:53;;;;;;;1.43;0.77;;;11.80;26.60;;;;;;5040059;28;20903;-74
2022/10/09 01:20:41;;;;;;;1.10;0.70;;;11.80;31.50;;;;;;5037522;28;20488;-74
2022/10/09 01:23:37;;;;;;;1.20;0.80;;;11.70;20.00;;;;;;5040256;28;20894;-74
2022/10/09 01:26:21;;;;;;;1.77;0.67;;;11.70;17.00;;;;;;5028745;28;20460;-74
2022/10/09 01:29:02;;;;;;;1.73;0.60;;;11.70;37.70;;;;;;5037841;28;20448;-74
2022/10/09 01:31:37;;;;;;;1.70;0.73;;;11.70;44.10;;;;;;5040103;28;20444;-74
2022/10/09 01:34:05;;;;;;;1.00;0.70;;;11.60;27.50;;;;;;5036796;28;20530;-74
2022/10/09 01:36:33;;;;;;;1.47;0.70;;;11.70;25.70;;;;;;5040059;28;20448;-74
2022/10/09 01:39:03;;;;;;;1.40;0.80;;;11.60;14.80;;;;;;5039580;28;20531;-74
2022/10/09 01:41:30;;;;;;;1.37;0.80;;;11.60;20.20;;;;;;5040481;28;20865;-74
2022/10/09 01:43:59;;;;;;;1.90;0.77;;;11.50;29.30;;;;;;5037738;28;20498;-74
2022/10/09 01:46:28;;;;;;;1.40;0.80;;;11.40;26.90;;;;;;5039450;28;20524;-74
2022/10/09 01:49:08;;;;;;;3.57;0.80;;;11.40;47.30;;;;;;5036286;28;20445;-74
2022/10/09 01:51:44;;;;;;;2.20;0.80;;;11.40;41.40;;;;;;5039330;28;20444;-74
2022/10/09 01:54:14;;;;;;;1.67;0.90;;;11.40;35.80;;;;;;5035569;28;20455;-74
2022/10/09 01:56:45;;;;;;;4.10;0.67;;;11.30;37.50;;;;;;5038787;28;20451;-74
2022/10/09 01:59:16;;;;;;;1.20;0.80;;;11.30;53.70;;;;;;5038496;28;20522;-74
2022/10/09 02:01:45;;;;;;;1.20;0.70;;;11.20;44.30;;;;;;5039244;28;20448;-74
2022/10/09 02:04:14;;;;;;;0.90;0.70;;;11.30;49.80;;;;;;5039148;28;20514;-74
2022/10/09 02:06:43;;;;;;;1.30;0.70;;;11.40;59.80;;;;;;5039027;28;20448;-74
2022/10/09 02:09:13;;;;;;;1.33;0.87;;;11.50;36.50;;;;;;5036448;28;20532;-74
2022/10/09 02:11:44;;;;;;;1.17;0.70;;;11.60;27.10;;;;;;5038256;28;20448;-73
2022/10/09 02:14:13;;;;;;;3.33;0.60;;;11.60;18.90;;;;;;5036656;28;20935;-72
2022/10/09 02:16:43;;;;;;;1.30;0.70;;;11.50;19.30;;;;;;5038936;28;20448;-73
2022/10/09 02:19:16;;;;;;;1.30;0.70;;;11.50;24.00;;;;;;5033870;28;20488;-73
2022/10/09 02:21:47;;;;;;;1.00;0.70;;;11.40;18.80;;;;;;5037777;28;20444;-73
2022/10/09 02:24:19;;;;;;;1.00;0.70;;;11.60;35.70;;;;;;5033971;28;20517;-73
2022/10/09 02:26:46;;;;;;;1.40;0.70;;;11.60;16.80;;;;;;5038500;28;20499;-73
2022/10/09 02:29:15;;;;;;;2.03;0.80;;;11.50;16.00;;;;;;5035514;28;20448;-74
2022/10/09 02:31:44;;;;;;;1.97;0.90;;;11.40;9.90;;;;;;5037652;28;20452;-73
2022/10/09 02:34:12;;;;;;;1.30;0.83;;;11.30;11.70;;;;;;5036687;28;20456;-73
2022/10/09 02:36:40;;;;;;;2.13;0.80;;;11.20;35.70;;;;;;5038616;28;20884;-73
2022/10/09 02:39:08;;;;;;;3.10;0.70;;;11.20;52.40;;;;;;5035514;28;20444;-73
2022/10/09 02:41:35;;;;;;;1.20;0.77;;;11.20;39.70;;;;;;5038970;28;20884;-73
2022/10/09 02:44:03;;;;;;;1.83;0.90;;;11.20;36.50;;;;;;5035669;28;20871;-73
2022/10/09 02:46:32;;;;;;;1.97;0.70;;;11.20;23.70;;;;;;5038375;28;20456;-73
2022/10/09 02:48:59;;;;;;;1.40;0.73;;;11.10;17.90;;;;;;5035985;28;20456;-73
2022/10/09 02:51:29;;;;;;;1.20;0.60;;;11.00;40.40;;;;;;5038396;28;20460;-73
2022/10/09 02:53:58;;;;;;;2.70;0.90;;;11.10;41.30;;;;;;5034530;28;20448;-73
2022/10/09 02:56:26;;;;;;;1.30;0.70;;;11.00;24.00;;;;;;5037926;28;20876;-73
2022/10/09 02:58:53;;;;;;;1.83;0.80;;;11.00;32.10;;;;;;5035277;28;20452;-73
2022/10/09 03:01:20;;;;;;;1.10;0.83;;;11.00;36.10;;;;;;5037942;28;20488;-73
2022/10/09 03:03:48;;;;;;;1.13;0.77;;;11.00;24.40;;;;;;5035880;28;20452;-73
2022/10/09 03:06:18;;;;;;;2.80;0.90;;;10.90;29.10;;;;;;5037749;28;20810;-73
2022/10/09 03:08:47;;;;;;;1.20;0.63;;;10.90;30.10;;;;;;5035090;28;20762;-73
2022/10/09 03:11:15;;;;;;;1.00;0.70;;;10.90;29.50;;;;;;5037771;28;20900;-73
2022/10/09 03:13:43;;;;;;;1.23;0.80;;;10.80;22.90;;;;;;5037815;28;20551;-73
2022/10/09 03:16:11;;;;;;;1.03;0.80;;;10.70;27.60;;;;;;5035459;28;20751;-73
2022/10/09 03:18:39;;;;;;;1.20;0.70;;;10.60;41.90;;;;;;5037663;28;20456;-73
2022/10/09 03:21:09;;;;;;;1.80;0.60;;;10.60;60.60;;;;;;5036221;28;20480;-73
2022/10/09 03:23:36;;;;;;;1.17;0.60;;;10.70;55.90;;;;;;5038557;28;20733;-73
2022/10/09 03:26:06;;;;;;;1.57;0.70;;;10.80;43.30;;;;;;5036157;28;20857;-73
2022/10/09 03:28:35;;;;;;;2.00;0.70;;;10.80;29.80;;;;;;5038483;28;20452;-73
2022/10/09 03:31:03;;;;;;;1.63;0.70;;;10.70;21.50;;;;;;5035990;28;20550;-73
2022/10/09 03:33:30;;;;;;;1.20;0.60;;;10.70;18.20;;;;;;5038453;28;20491;-73
2022/10/09 03:35:57;;;;;;;1.30;0.80;;;10.70;34.20;;;;;;5036459;28;20506;-73
2022/10/09 03:38:25;;;;;;;2.40;0.70;;;10.70;29.70;;;;;;5037170;28;20475;-73
2022/10/09 03:40:53;;;;;;;1.00;0.70;;;10.80;22.50;;;;;;5034750;28;20515;-73
2022/10/09 03:43:20;;;;;;;1.20;0.60;;;10.90;23.80;;;;;;5037787;28;20452;-73
2022/10/09 03:45:47;;;;;;;0.80;0.70;;;10.90;9.90;;;;;;5035066;28;20506;-73
2022/10/09 03:48:15;;;;;;;1.53;0.70;;;10.90;19.60;;;;;;5036953;28;20452;-74
2022/10/09 03:50:42;;;;;;;1.10;0.70;;;10.90;12.90;;;;;;5036654;28;20759;-72
2022/10/09 03:53:11;;;;;;;2.33;0.70;;;10.90;11.30;;;;;;5037580;28;20444;-73
2022/10/09 03:55:40;;;;;;;2.00;0.67;;;10.90;9.40;;;;;;5037518;28;20487;-73
2022/10/09 03:58:08;;;;;;;1.00;0.60;;;10.80;1.00;;;;;;5038006;28;20872;-73
2022/10/09 04:00:35;;;;;;;1.00;0.63;;;10.70;17.90;;;;;;5037214;28;20488;-73
2022/10/09 04:03:02;;;;;;;1.73;0.60;;;10.70;17.20;;;;;;5034730;28;20464;-73
2022/10/09 04:05:32;;;;;;;1.87;0.80;;;10.70;23.60;;;;;;5037602;28;20879;-73
2022/10/09 04:07:59;;;;;;;1.00;0.70;;;10.70;19.40;;;;;;5035093;28;20502;-73
2022/10/09 04:10:26;;;;;;;1.30;0.80;;;10.70;21.90;;;;;;5037216;28;20502;-73
2022/10/09 04:12:55;;;;;;;1.10;0.80;;;10.70;12.50;;;;;;5037279;28;20480;-73
2022/10/09 04:15:21;;;;;;;1.30;0.87;;;10.70;11.50;;;;;;5035489;28;20456;-73
2022/10/09 04:17:49;;;;;;;2.47;0.70;;;10.70;23.70;;;;;;5036691;28;21097;-73
2022/10/09 04:20:16;;;;;;;1.73;0.80;;;10.70;13.00;;;;;;5033851;28;20617;-73
2022/10/09 04:22:45;;;;;;;1.00;0.70;;;10.70;29.40;;;;;;5037253;28;20452;-73
2022/10/09 04:25:12;;;;;;;1.90;0.80;;;10.80;19.20;;;;;;5034627;28;20460;-73
2022/10/09 04:27:39;;;;;;;2.30;0.73;;;10.90;10.30;;;;;;5037252;28;20444;-73
2022/10/09 04:30:09;;;;;;;0.83;0.57;;;11.00;14.70;;;;;;5034611;28;20522;-73
2022/10/09 04:32:36;;;;;;;0.90;0.70;;;10.90;2.80;;;;;;5036559;28;20460;-73
2022/10/09 04:35:04;;;;;;;1.20;0.80;;;10.90;1.50;;;;;;5036813;28;20455;-73
2022/10/09 04:37:30;;;;;;;1.00;0.60;;;10.80;1.00;;;;;;5040567;28;20505;-73
2022/10/09 04:39:57;;;;;;;0.80;0.70;;;10.80;5.00;;;;;;5038883;28;20484;-73
2022/10/09 04:42:24;;;;;;;0.80;0.60;;;10.80;10.10;;;;;;5040241;28;20464;-73
2022/10/09 04:44:51;;;;;;;3.00;0.80;;;10.80;7.10;;;;;;5037924;28;20526;-73
2022/10/09 04:47:20;;;;;;;0.73;0.50;;;10.90;4.90;;;;;;5040422;28;20898;-73
2022/10/09 04:49:47;;;;;;;1.73;0.67;;;11.00;6.00;;;;;;5037517;28;20884;-72
2022/10/09 04:52:14;;;;;;;2.53;0.80;;;11.10;1.00;;;;;;5040298;28;20506;-73
2022/10/09 04:54:41;;;;;;;1.10;0.70;;;10.90;1.00;;;;;;5040587;28;20872;-73
2022/10/09 04:57:08;;;;;;;1.33;0.80;;;10.90;7.40;;;;;;5040495;28;20452;-73
2022/10/09 04:59:35;;;;;;;0.90;0.60;;;10.90;10.40;;;;;;5040173;28;20503;-73
2022/10/09 05:02:02;;;;;;;2.00;0.60;;;10.90;5.30;;;;;;5037391;28;20460;-73
2022/10/09 05:04:30;;;;;;;3.23;0.70;;;10.90;1.00;;;;;;5040286;28;20483;-73
2022/10/09 05:06:57;;;;;;;0.90;0.60;;;10.80;1.00;;;;;;5038562;28;20764;-73
2022/10/09 05:09:24;;;;;;;1.30;0.67;;;10.80;1.00;;;;;;5040040;28;20452;-73
2022/10/09 05:11:51;;;;;;;0.97;0.60;;;10.70;3.40;;;;;;5036730;28;20464;-73
2022/10/09 05:14:18;;;;;;;1.97;0.70;;;10.60;3.50;;;;;;5040878;28;20510;-73
2022/10/09 05:16:50;;;;;;;1.10;0.63;;;10.50;7.90;;;;;;5037746;28;20491;-73
2022/10/09 05:19:16;;;;;;;1.23;0.73;;;10.50;22.60;;;;;;5040390;28;20884;-73
2022/10/09 05:21:45;;;;;;;1.80;0.70;;;10.40;9.50;;;;;;5037234;28;20545;-74
2022/10/09 05:24:12;;;;;;;1.20;0.80;;;10.40;10.50;;;;;;5040266;28;20507;-74
2022/10/09 05:26:39;;;;;;;1.90;0.70;;;10.30;10.10;;;;;;5038066;28;20464;-74
2022/10/09 05:29:06;;;;;;;1.00;0.80;;;10.10;18.50;;;;;;5040159;28;20437;-74
2022/10/09 05:31:33;;;;;;;1.53;0.80;;;9.90;24.80;;;;;;5037299;28;20456;-74
2022/10/09 05:34:01;;;;;;;1.20;0.80;;;9.80;37.30;;;;;;5040389;28;20453;-76
2022/10/09 05:36:28;;;;;;;1.20;0.80;;;9.80;57.60;;;;;;5040740;28;20502;-74
2022/10/09 05:38:57;;;;;;;2.60;0.70;;;9.90;81.30;;;;;;5037665;28;20456;-75
2022/10/09 05:41:24;;;;;;;1.67;0.70;;;9.90;56.70;;;;;;5039735;28;20546;-75
2022/10/09 05:43:51;;;;;;;2.03;0.80;;;9.90;55.60;;;;;;5036577;28;20459;-75
2022/10/09 05:46:20;;;;;;;1.10;0.80;;;9.90;46.90;;;;;;5038143;28;20448;-75
2022/10/09 05:48:51;;;;;;;1.23;0.70;;;9.90;55.70;;;;;;5038904;28;20441;-75
2022/10/09 05:51:19;;;;;;;1.40;0.70;;;9.90;53.20;;;;;;5039329;28;20480;-74
2022/10/09 05:53:48;;;;;;;1.80;0.63;;;9.90;46.50;;;;;;5039279;28;20957;-75
2022/10/09 05:56:19;;;;;;;3.13;0.70;;;9.80;49.10;;;;;;5040153;28;20450;-75
2022/10/09 05:58:50;;;;;;;1.23;0.80;;;9.80;59.90;;;;;;5036527;28;20452;-75
2022/10/09 06:01:18;;;;;;;1.77;0.63;;;9.90;72.90;;;;;;5039731;28;20472;-75
2022/10/09 06:03:49;;;;;;;1.37;0.80;;;9.90;55.10;;;;;;5036386;28;20590;-75
2022/10/09 06:06:16;;;;;;;0.90;0.70;;;10.00;46.00;;;;;;5039575;28;20449;-75
2022/10/09 06:08:43;;;;;;;1.17;0.80;;;10.10;66.80;;;;;;5036630;28;20465;-74
2022/10/09 06:11:13;;;;;;;1.00;0.70;;;10.30;46.50;;;;;;5038672;28;20902;-73
2022/10/09 06:13:42;;;;;;;0.90;0.60;;;10.30;24.60;;;;;;5035671;28;20835;-73
2022/10/09 06:16:10;;;;;;;1.17;0.83;;;10.30;22.30;;;;;;5038705;28;20447;-73
2022/10/09 06:18:37;;;;;;;1.90;0.70;;;10.30;31.80;;;;;;5037978;28;20466;-73
2022/10/09 06:21:05;;;;;;;1.97;0.90;;;10.40;19.50;;;;;;5038863;28;20484;-73
2022/10/09 06:23:32;;;;;;;1.30;0.63;;;10.30;9.50;;;;;;5035118;28;20463;-75
2022/10/09 06:26:02;;;;;;;1.80;0.80;;;10.20;28.10;;;;;;5038561;28;20813;-75
2022/10/09 06:28:30;;;;;;;1.20;0.70;;;10.20;22.00;;;;;;5038973;28;20969;-73
2022/10/09 06:31:02;;;;;;;1.60;0.80;;;10.30;34.00;;;;;;5038833;28;20448;-72
2022/10/09 06:33:31;;;;;;;1.30;0.90;;;10.30;18.80;;;;;;5038689;28;20479;-75
2022/10/09 06:36:01;;;;;;;1.00;0.70;;;10.10;14.00;;;;;;5038508;28;20448;-75
2022/10/09 06:38:28;;;;;;;1.20;0.80;;;10.10;40.20;;;;;;5035133;28;20456;-73
2022/10/09 06:40:55;;;;;;;1.03;0.70;;;10.20;39.50;;;;;;5037637;28;21049;-75
2022/10/09 06:43:22;;;;;;;1.07;0.80;;;10.30;39.20;;;;;;5035249;28;20460;-73
2022/10/09 06:45:49;;;;;;;1.17;0.73;;;10.50;18.20;;;;;;5037813;28;20452;-73
2022/10/09 06:48:17;;;;;;;1.60;0.80;;;10.50;20.50;;;;;;5034719;28;20487;-73
2022/10/09 06:50:44;;;;;;;1.43;0.87;;;10.70;12.80;;;;;;5037465;28;20655;-73
2022/10/09 06:53:11;;;;;;;5.80;0.80;;;10.70;2.00;;;;;;5033258;28;20498;-73
2022/10/09 06:55:38;;;;;;;1.37;0.90;;;10.80;5.00;;;;;;5037485;28;20459;-73
2022/10/09 06:58:05;;;;;;;1.30;0.83;;;10.70;1.00;;;;;;5033845;28;20820;-72
2022/10/09 07:00:32;;;;;;;1.60;0.93;;;10.70;10.60;;;;;;5037561;28;20485;-75
2022/10/09 07:02:59;;;;;;;2.20;0.70;;;10.50;1.00;;;;;;5035717;28;20460;-73
2022/10/09 07:05:27;;;;;;;0.97;0.70;;;10.50;14.30;;;;;;5037919;28;20498;-73
2022/10/09 07:07:54;;;;;;;1.30;0.90;;;10.50;28.10;;;;;;5034514;28;20876;-74
2022/10/09 07:10:21;;;;;;;1.60;0.80;;;10.50;14.00;;;;;;5036999;28;20884;-73
2022/10/09 07:12:48;;;;;;;1.80;0.80;;;10.50;33.50;;;;;;5037610;28;20511;-73
2022/10/09 07:15:15;;;;;;;1.43;0.70;;;10.70;27.10;;;;;;5037810;28;20502;-72
2022/10/09 07:17:42;;;;;;;1.80;0.90;;;10.80;16.90;;;;;;5034426;28;20452;-73
2022/10/09 07:20:09;;;;;;;1.40;0.93;;;11.00;6.20;;;;;;5038267;28;20432;-73
2022/10/09 07:22:38;;;;;;;1.37;0.80;;;11.20;1.00;;;;;;5035282;28;21001;-75
2022/10/09 07:25:06;;;;;;;2.93;1.40;;;11.20;1.00;;;;;;5037036;28;20452;-73
2022/10/09 07:27:34;;;;;;;1.60;1.40;;;11.20;1.00;;;;;;5033292;28;20463;-73
2022/10/09 07:30:01;;;;;;;3.50;2.60;;;11.00;1.00;;;;;;5036537;28;20495;-74
2022/10/09 07:32:28;;;;;;;3.87;0.93;;;11.10;1.00;;;;;;5033518;28;20510;-73
2022/10/09 07:34:55;;;;;;;1.57;0.90;;;11.30;1.00;;;;;;5036234;28;20915;-75
2022/10/09 07:37:22;;;;;;;1.70;0.90;;;11.30;1.00;;;;;;5033620;28;20464;-75
2022/10/09 07:39:51;;;;;;;1.20;0.80;;;11.40;1.00;;;;;;5037105;28;20498;-75
2022/10/09 07:42:18;;;;;;;1.27;0.80;;;11.30;1.00;;;;;;5034573;28;20488;-74
2022/10/09 07:44:45;;;;;;;1.47;0.80;;;11.50;1.00;;;;;;5037307;28;20791;-74
2022/10/09 07:47:12;;;;;;;3.17;1.20;;;11.40;1.00;;;;;;5034523;28;20460;-73
2022/10/09 07:49:39;;;;;;;2.33;0.70;;;11.30;1.00;;;;;;5037805;28;20483;-74
2022/10/09 07:52:06;;;;;;;1.50;0.90;;;11.40;1.00;;;;;;5034636;28;20456;-74
2022/10/09 07:54:33;;;;;;;1.30;0.90;;;11.40;1.00;;;;;;5037222;28;20881;-74
2022/10/09 07:57:01;;;;;;;5.80;1.17;;;11.50;1.00;;;;;;5033518;28;20453;-74
2022/10/09 07:59:28;;;;;;;2.37;0.90;;;11.60;1.00;;;;;;5037075;28;20875;-74
2022/10/09 08:01:55;;;;;;;1.30;0.90;;;11.80;1.00;;;;;;5033368;28;20938;-75
2022/10/09 08:04:29;;;;;;;4.17;0.90;;;12.00;1.00;;;;;;5036805;28;20486;-76
2022/10/09 08:06:58;;;;;;;2.90;1.10;;;12.00;1.00;;;;;;5033503;28;20432;-74
2022/10/09 08:09:28;;;;;;;1.80;0.80;;;11.80;1.00;;;;;;5037475;28;20452;-74
2022/10/09 08:11:54;;;;;;;2.47;0.80;;;11.60;1.00;;;;;;5037524;28;20539;-74
2022/10/09 08:14:23;;;;;;;2.70;0.90;;;11.70;1.00;;;;;;5040311;28;20506;-74
2022/10/09 08:16:50;;;;;;;1.50;0.70;;;11.90;1.00;;;;;;5040479;28;20499;-75
2022/10/09 08:19:17;;;;;;;1.20;0.80;;;12.10;1.00;;;;;;5037620;28;20510;-74
2022/10/09 08:21:46;;;;;;;3.30;0.87;;;12.00;1.00;;;;;;5039379;28;20489;-74
2022/10/09 08:24:14;;;;;;;1.70;0.90;;;12.10;1.00;;;;;;5037227;28;20766;-74
2022/10/09 08:26:41;;;;;;;1.10;0.70;;;12.10;1.00;;;;;;5039905;28;20448;-74
2022/10/09 08:29:12;;;;;;;1.80;0.97;;;12.00;1.00;;;;;;5037789;28;20455;-75
2022/10/09 08:31:41;;;;;;;1.80;0.87;;;12.10;1.00;;;;;;5039451;28;20452;-75
2022/10/09 08:34:09;;;;;;;1.10;0.70;;;12.10;1.00;;;;;;5037303;28;20460;-75
2022/10/09 08:36:36;;;;;;;1.03;0.70;;;12.20;1.00;;;;;;5039606;28;20768;-74
2022/10/09 08:39:04;;;;;;;1.10;0.77;;;12.50;1.00;;;;;;5038717;28;20462;-74
2022/10/09 08:41:46;;;;;;;1.57;0.80;;;12.70;1.00;;;;;;5039405;28;20634;-74
2022/10/09 08:44:22;;;;;;;0.83;0.60;;;12.80;1.00;;;;;;5038887;28;20456;-74
2022/10/09 08:47:00;;;;;;;2.00;0.90;;;12.80;1.00;;;;;;5039338;28;20444;-73
2022/10/09 08:49:34;;;;;;;0.97;0.63;;;12.80;1.00;;;;;;5036081;28;20895;-73
2022/10/09 08:52:15;;;;;;;7.03;0.83;;;13.00;1.00;;;;;;5039432;28;20511;-75
2022/10/09 08:54:43;;;;;;;1.70;1.60;;;13.20;1.00;;;;;;5035656;28;21052;-74
2022/10/09 08:57:13;;;;;;;1.70;0.70;;;13.20;1.00;;;;;;5039348;28;20487;-75
2022/10/09 08:59:40;;;;;;;1.30;0.60;;;13.10;1.00;;;;;;5038336;28;20459;-73
2022/10/09 09:02:30;;;;;;;1.87;0.70;;;13.30;1.00;;;;;;5038995;28;20479;-75
2022/10/09 09:05:08;;;;;;;1.10;0.60;;;13.40;1.00;;;;;;5036445;28;20456;-75
2022/10/09 09:07:46;;;;;;;1.77;0.60;;;13.40;1.00;;;;;;5038688;28;21067;-74
2022/10/09 09:10:23;;;;;;;1.10;0.70;;;13.50;1.00;;;;;;5036786;28;20502;-74
2022/10/09 09:12:54;;;;;;;3.23;0.80;;;13.70;99.90;;;;;;5038944;28;20479;-74
2022/10/09 09:15:41;;;;;;;1.97;0.77;;;13.70;1.00;;;;;;5035320;28;20510;-74
2022/10/09 09:18:22;;;;;;;2.43;0.77;;;13.80;99.90;;;;;;5038692;28;20456;-74
2022/10/09 09:20:53;;;;;;;2.13;0.80;;;13.90;99.90;;;;;;5035345;28;20452;-74
2022/10/09 09:23:26;;;;;;;1.00;0.63;;;13.90;99.90;;;;;;5039126;28;20948;-74
2022/10/09 09:25:53;;;;;;;1.33;0.70;;;13.90;99.90;;;;;;5035668;28;20463;-74
2022/10/09 09:28:25;;;;;;;1.13;0.70;;;14.00;99.90;;;;;;5038232;28;20550;-74
2022/10/09 09:30:57;;;;;;;0.80;0.63;;;14.10;99.90;;;;;;5036153;28;20510;-74
2022/10/09 09:33:35;;;;;;;1.20;0.60;;;14.30;99.90;;;;;;5038316;28;20879;-74
2022/10/09 09:36:08;;;;;;;0.93;0.50;;;14.30;98.80;;;;;;5036005;28;20513;-74
2022/10/09 09:38:36;;;;;;;0.83;0.50;;;14.20;1.00;;;;;;5038927;28;20505;-74
2022/10/09 09:41:04;;;;;;;1.30;0.70;;;14.30;1.00;;;;;;5035988;28;20892;-74
2022/10/09 09:43:31;;;;;;;0.60;0.40;;;14.50;99.90;;;;;;5038643;28;20530;-74
2022/10/09 09:46:00;;;;;;;1.53;0.50;;;14.70;9.80;;;;;;5035909;28;20741;-74
2022/10/09 09:48:33;;;;;;;0.80;0.40;;;14.90;63.10;;;;;;5038521;28;20830;-74
2022/10/09 09:51:01;;;;;;;2.17;0.50;;;15.10;99.90;;;;;;5035894;28;20860;-74
2022/10/09 09:53:32;;;;;;;1.33;0.50;;;15.30;1.00;;;;;;5039415;28;20472;-74
2022/10/09 09:55:59;;;;;;;1.30;0.50;;;15.50;99.90;;;;;;5035627;28;20453;-74
2022/10/09 09:58:34;;;;;;;0.60;0.30;;;15.70;1.00;;;;;;5038914;28;20456;-74
2022/10/09 10:01:03;;;;;;;1.77;0.40;;;15.80;1.00;;;;;;5036824;28;21001;-74
2022/10/09 10:03:32;;;;;;;0.50;0.40;;;15.90;1.00;;;;;;5038236;28;20480;-74
2022/10/09 10:06:01;;;;;;;1.47;0.40;;;16.00;99.90;;;;;;5035306;28;20456;-74
2022/10/09 10:08:29;;;;;;;0.67;0.40;;;16.10;99.90;;;;;;5038183;28;20448;-74
2022/10/09 10:10:58;;;;;;;2.00;0.50;;;16.10;99.90;;;;;;5035845;28;20518;-74
2022/10/09 10:13:32;;;;;;;1.53;0.40;;;16.30;99.90;;;;;;5037352;28;20491;-74
2022/10/09 10:16:00;;;;;;;0.70;0.37;;;16.40;96.00;;;;;;5034791;28;20506;-74
2022/10/09 10:18:31;;;;;;;0.73;0.40;;;16.50;99.90;;;;;;5037342;28;20433;-73
2022/10/09 10:21:06;;;;;;;1.43;0.40;;;16.40;7.50;;;;;;5033915;28;20840;-73
2022/10/09 10:23:37;;;;;;;0.63;0.37;;;16.60;99.90;;;;;;5036001;28;20581;-73
2022/10/09 10:26:09;;;;;;;0.60;0.40;;;16.60;42.00;;;;;;5033017;28;20462;-73
2022/10/09 10:28:47;;;;;;;1.10;0.30;;;16.60;1.00;;;;;;5037036;28;20490;-73
2022/10/09 10:31:24;;;;;;;2.13;0.40;;;16.70;1.00;;;;;;5033051;28;20463;-72
2022/10/09 10:33:56;;;;;;;1.30;0.40;;;16.70;1.00;;;;;;5035454;28;20505;-75
2022/10/09 10:36:27;;;;;;;0.60;0.40;;;16.80;1.00;;;;;;5034411;28;20458;-74
2022/10/09 10:39:01;;;;;;;1.00;0.30;;;16.90;1.00;;;;;;5037411;28;20514;-74
2022/10/09 10:41:32;;;;;;;1.33;0.33;;;17.10;1.00;;;;;;5034895;28;20969;-73
2022/10/09 10:44:06;;;;;;;0.93;0.40;;;17.50;1.00;;;;;;5036740;28;20452;-73
2022/10/09 10:46:39;;;;;;;0.97;0.30;;;17.40;1.00;;;;;;5036721;28;20810;-73
2022/10/09 10:49:11;;;;;;;0.60;0.30;;;17.20;1.00;;;;;;5036840;28;20900;-72
2022/10/09 10:51:53;;;;;;;1.10;0.63;;;17.20;1.00;;;;;;5033659;28;20464;-72
2022/10/09 10:54:33;;;;;;;1.63;0.40;;;17.40;1.00;;;;;;5037018;28;20460;-74
2022/10/09 10:57:08;;;;;;;0.60;0.20;;;17.40;1.00;;;;;;5034331;28;20482;-73
2022/10/09 10:59:41;;;;;;;0.50;0.30;;;17.40;1.00;;;;;;5038019;28;20494;-74
2022/10/09 11:02:46;;;;;;;0.60;0.30;;;17.60;1.00;;;;;;5034111;28;20538;-73
2022/10/09 11:05:26;;;;;;;0.57;0.30;;;17.90;1.00;;;;;;4997555;28;20506;-74
2022/10/09 11:08:09;;;;;;;0.60;0.30;;;18.20;1.00;;;;;;5035700;28;20456;-73
2022/10/09 11:10:43;;;;;;;0.50;0.30;;;18.30;1.00;;;;;;5037572;28;20433;-73
2022/10/09 11:13:15;;;;;;;0.80;0.30;;;18.40;1.00;;;;;;5037839;28;20469;-76
2022/10/09 11:15:52;;;;;;;0.80;0.50;;;18.40;1.00;;;;;;5034477;28;20729;-72
2022/10/09 11:18:29;;;;;;;0.97;0.30;;;18.20;1.00;;;;;;5038082;28;20483;-75
2022/10/09 11:21:20;;;;;;;0.40;0.20;;;18.20;1.00;;;;;;5034992;28;20494;-75
2022/10/09 11:24:02;;;;;;;0.53;0.30;;;17.90;1.00;;;;;;5033261;28;20951;-75
2022/10/09 11:26:35;;;;;;;0.50;0.30;;;17.90;1.00;;;;;;5034051;28;20521;-75
2022/10/09 11:29:09;;;;;;;0.40;0.30;;;17.60;1.00;;;;;;5038126;28;20471;-73
2022/10/09 11:32:12;;;;;;;0.80;0.40;;;17.50;1.00;;;;;;5034162;28;20597;-73
2022/10/09 11:34:46;;;;;;;2.63;0.60;;;17.50;1.00;;;;;;5037565;28;20491;-74
2022/10/09 11:37:18;;;;;;;0.60;0.40;;;17.60;1.00;;;;;;5035137;28;20466;-73
2022/10/09 11:39:46;;;;;;;0.70;0.30;;;17.90;1.00;;;;;;5038348;28;20845;-72
2022/10/09 11:42:22;;;;;;;0.50;0.30;;;18.10;1.00;;;;;;5034039;28;20484;-73
2022/10/09 11:45:01;;;;;;;0.60;0.33;;;18.50;1.00;;;;;;5041255;28;20443;-74
2022/10/09 11:47:36;;;;;;;0.60;0.20;;;18.40;1.00;;;;;;5038552;28;20510;-74
2022/10/09 11:50:22;;;;;;;0.93;0.40;;;18.50;1.00;;;;;;5041171;28;20478;-74
2022/10/09 11:52:58;;;;;;;0.73;0.30;;;18.50;1.00;;;;;;5038688;28;20479;-74
2022/10/09 11:55:28;;;;;;;0.60;0.30;;;18.20;1.00;;;;;;5040890;28;20436;-73
2022/10/09 11:57:55;;;;;;;0.50;0.30;;;18.10;1.00;;;;;;5036723;28;20748;-74
2022/10/09 12:00:33;;;;;;;0.60;0.30;;;18.00;1.00;;;;;;5041797;28;20428;-74
2022/10/09 12:03:02;;;;;;;0.70;0.30;;;17.70;1.00;;;;;;5037063;28;20592;-73
2022/10/09 12:05:41;;;;;;;0.50;0.30;;;17.40;1.00;;;;;;5041712;28;20800;-74
2022/10/09 12:08:14;;;;;;;0.90;0.50;;;17.50;1.00;;;;;;5042913;28;20440;-73
2022/10/09 12:10:50;;;;;;;2.63;0.67;;;17.60;1.00;;;;;;5039643;28;20851;-73
2022/10/09 12:13:42;;;;;;;0.63;0.40;;;17.60;1.00;;;;;;5041791;28;20507;-73
2022/10/09 12:16:11;;;;;;;1.00;0.33;;;17.70;1.00;;;;;;5036422;28;20460;-73
2022/10/09 12:18:41;;;;;;;0.83;0.40;;;17.90;1.00;;;;;;5040045;28;20444;-74
2022/10/09 12:21:21;;;;;;;0.90;0.30;;;17.90;1.00;;;;;;5037953;28;20464;-73
2022/10/09 12:23:51;;;;;;;0.93;0.40;;;17.80;1.00;;;;;;5039341;28;20483;-73
2022/10/09 12:26:23;;;;;;;0.40;0.30;;;17.70;1.00;;;;;;5035889;28;20472;-74
2022/10/09 12:28:53;;;;;;;0.47;0.30;;;17.50;1.00;;;;;;5039784;28;20436;-74
2022/10/09 12:31:24;;;;;;;1.87;0.30;;;17.60;1.00;;;;;;5036062;28;20502;-73
2022/10/09 12:33:55;;;;;;;1.40;0.40;;;17.80;1.00;;;;;;5038947;28;20763;-73
2022/10/09 12:36:27;;;;;;;0.77;0.30;;;18.00;1.00;;;;;;5036516;28;20456;-74
2022/10/09 12:38:55;;;;;;;0.63;0.30;;;18.00;1.00;;;;;;5037988;28;20502;-73
2022/10/09 12:41:27;;;;;;;0.80;0.30;;;17.90;1.00;;;;;;5038514;28;20806;-73
2022/10/09 12:43:55;;;;;;;0.70;0.40;;;17.90;1.00;;;;;;5037185;28;20549;-74
2022/10/09 12:46:28;;;;;;;0.60;0.30;;;17.80;1.00;;;;;;5035244;28;20460;-74
2022/10/09 12:48:55;;;;;;;0.60;0.30;;;17.90;1.00;;;;;;5039063;28;20968;-73
2022/10/09 12:51:25;;;;;;;0.70;0.30;;;17.90;1.00;;;;;;5034251;28;20456;-74
2022/10/09 12:53:54;;;;;;;0.50;0.30;;;17.90;1.00;;;;;;5039141;28;20444;-74
2022/10/09 12:56:25;;;;;;;0.63;0.40;;;18.00;1.00;;;;;;5033643;28;20907;-74
2022/10/09 12:58:53;;;;;;;0.60;0.40;;;18.00;1.00;;;;;;5037233;28;20503;-75
2022/10/09 13:01:21;;;;;;;0.60;0.30;;;17.90;1.00;;;;;;5034526;28;20563;-74
2022/10/09 13:03:57;;;;;;;0.40;0.30;;;17.70;1.00;;;;;;5038176;28;20476;-74
2022/10/09 13:06:27;;;;;;;0.40;0.27;;;17.70;1.00;;;;;;5033631;28;20485;-73
2022/10/09 13:08:56;;;;;;;0.67;0.30;;;17.80;1.00;;;;;;5037471;28;20506;-73